createdAt,value
2022-08-22T00:02:13.905Z,15.00
2022-08-22T00:03:00.025Z,19.30
2022-08-22T00:03:03.865Z,19.20
2022-08-22T00:04:44.117Z,15.00
2022-08-22T00:11:02.518Z,15.00
2022-08-22T00:13:33.886Z,15.00
2022-08-22T00:16:05.389Z,15.00
2022-08-22T00:18:38.287Z,15.10
2022-08-22T00:21:10.488Z,14.80
2022-08-22T00:23:41.690Z,14.90
2022-08-22T00:26:15.406Z,14.80
2022-08-22T00:28:45.472Z,14.80
2022-08-22T00:31:19.649Z,14.70
2022-08-22T00:33:51.333Z,14.50
2022-08-22T00:36:27.127Z,14.40
2022-08-22T00:38:59.119Z,14.60
2022-08-22T00:41:39.759Z,14.60
2022-08-22T00:44:24.494Z,14.60
2022-08-22T00:47:22.250Z,14.60
2022-08-22T00:50:13.307Z,14.60
2022-08-22T00:52:55.186Z,14.50
2022-08-22T00:55:43.771Z,14.70
2022-08-22T00:58:29.177Z,14.80
2022-08-22T01:00:58.824Z,14.70
2022-08-22T01:07:37.936Z,14.70
2022-08-22T01:10:22.764Z,14.50
2022-08-22T01:12:59.383Z,14.40
2022-08-22T01:15:28.701Z,14.40
2022-08-22T01:18:22.252Z,14.40
2022-08-22T01:21:38.436Z,14.40
2022-08-22T01:25:07.630Z,14.60
2022-08-22T01:27:58.802Z,14.60
2022-08-22T01:31:01.567Z,14.50
2022-08-22T01:34:11.872Z,14.50
2022-08-22T01:36:52.549Z,14.70
2022-08-22T01:39:47.171Z,14.70
2022-08-22T01:42:24.359Z,14.70
2022-08-22T01:45:07.763Z,14.40
2022-08-22T01:47:38.516Z,14.10
2022-08-22T01:50:14.185Z,14.20
2022-08-22T01:52:44.055Z,14.50
2022-08-22T01:55:14.256Z,14.40
2022-08-22T01:57:53.368Z,14.20
2022-08-22T02:00:35.399Z,14.10
2022-08-22T02:03:13.592Z,14.00
2022-08-22T02:05:49.467Z,13.90
2022-08-22T02:08:24.837Z,14.10
2022-08-22T02:10:58.467Z,14.10
2022-08-22T02:13:33.317Z,14.00
2022-08-22T02:16:10.271Z,14.00
2022-08-22T02:18:46.999Z,13.90
2022-08-22T02:21:18.069Z,13.90
2022-08-22T02:27:36.992Z,14.10
2022-08-22T02:30:09.109Z,14.10
2022-08-22T02:32:45.248Z,14.00
2022-08-22T02:35:20.287Z,13.80
2022-08-22T02:37:55.384Z,13.60
2022-08-22T02:40:29.172Z,13.70
2022-08-22T02:42:59.625Z,13.90
2022-08-22T02:45:31.128Z,13.60
2022-08-22T02:48:02.356Z,13.60
2022-08-22T02:50:35.760Z,13.60
2022-08-22T02:53:09.487Z,13.60
2022-08-22T02:55:44.687Z,13.40
2022-08-22T02:58:16.562Z,13.50
2022-08-22T03:04:46.579Z,13.80
2022-08-22T03:11:20.942Z,13.10
2022-08-22T03:13:54.705Z,13.00
2022-08-22T03:20:09.301Z,13.20
2022-08-22T03:22:43.511Z,13.10
2022-08-22T03:25:16.432Z,13.10
2022-08-22T03:27:49.919Z,13.10
2022-08-22T03:30:20.037Z,13.10
2022-08-22T03:32:49.386Z,13.20
2022-08-22T03:35:25.006Z,13.40
2022-08-22T03:37:55.688Z,13.40
2022-08-22T03:40:31.536Z,13.30
2022-08-22T03:43:22.358Z,13.30
2022-08-22T03:46:28.057Z,13.20
2022-08-22T03:49:09.282Z,13.20
2022-08-22T03:51:44.092Z,13.20
2022-08-22T03:54:23.553Z,13.30
2022-08-22T03:57:23.091Z,13.10
2022-08-22T04:00:09.542Z,13.20
2022-08-22T04:07:05.926Z,13.20
2022-08-22T04:10:25.242Z,13.20
2022-08-22T04:13:11.158Z,12.90
2022-08-22T04:27:06.011Z,13.20
2022-08-22T04:29:46.448Z,13.00
2022-08-22T04:32:18.686Z,13.00
2022-08-22T04:34:48.499Z,12.80
2022-08-22T04:38:30.201Z,12.80
2022-08-22T04:44:48.814Z,12.70
2022-08-22T04:47:25.549Z,12.70
2022-08-22T04:49:56.113Z,12.80
2022-08-22T04:52:31.225Z,12.80
2022-08-22T04:55:04.545Z,12.80
2022-08-22T04:57:35.664Z,12.70
2022-08-22T05:00:06.321Z,12.90
2022-08-22T05:02:37.707Z,12.90
2022-08-22T05:05:13.624Z,12.90
2022-08-22T05:07:43.721Z,12.80
2022-08-22T05:10:13.977Z,12.90
2022-08-22T05:12:43.895Z,12.90
2022-08-22T05:15:16.229Z,12.90
2022-08-22T05:17:52.682Z,12.80
2022-08-22T05:20:23.621Z,12.40
2022-08-22T05:22:52.876Z,12.10
2022-08-22T05:25:29.850Z,12.20
2022-08-22T05:28:12.377Z,12.30
2022-08-22T05:30:40.857Z,12.30
2022-08-22T05:33:25.713Z,12.40
2022-08-22T05:36:30.012Z,12.60
2022-08-22T05:39:00.077Z,12.70
2022-08-22T05:41:31.891Z,12.80
2022-08-22T05:43:59.842Z,12.80
2022-08-22T05:46:36.884Z,12.80
2022-08-22T05:49:06.283Z,12.90
2022-08-22T05:51:37.835Z,13.00
2022-08-22T05:54:10.632Z,13.10
2022-08-22T06:00:25.743Z,13.20
2022-08-22T06:03:02.012Z,13.30
2022-08-22T06:05:34.327Z,13.20
2022-08-22T06:09:04.976Z,13.30
2022-08-22T06:15:23.171Z,13.40
2022-08-22T06:17:52.539Z,13.60
2022-08-22T06:20:22.173Z,13.70
2022-08-22T06:22:55.197Z,13.70
2022-08-22T06:25:24.499Z,13.80
2022-08-22T06:27:52.598Z,13.80
2022-08-22T06:30:20.629Z,13.80
2022-08-22T06:32:58.990Z,13.90
2022-08-22T06:35:29.964Z,13.80
2022-08-22T06:38:00.597Z,13.80
2022-08-22T06:40:28.735Z,13.90
2022-08-22T06:46:38.448Z,14.10
2022-08-22T06:49:07.206Z,14.20
2022-08-22T06:51:36.231Z,14.40
2022-08-22T06:54:06.367Z,14.60
2022-08-22T06:56:36.689Z,14.70
2022-08-22T06:59:04.779Z,15.00
2022-08-22T07:01:36.209Z,15.20
2022-08-22T07:04:05.917Z,15.10
2022-08-22T07:06:35.831Z,15.10
2022-08-22T07:09:06.694Z,15.10
2022-08-22T07:11:37.489Z,15.30
2022-08-22T07:14:07.290Z,15.40
2022-08-22T07:16:37.053Z,15.50
2022-08-22T07:19:06.086Z,15.70
2022-08-22T07:21:43.504Z,15.80
2022-08-22T07:24:15.341Z,15.90
2022-08-22T07:26:46.646Z,15.90
2022-08-22T07:29:31.045Z,16.00
2022-08-22T07:32:03.821Z,16.20
2022-08-22T07:34:38.548Z,16.30
2022-08-22T07:37:08.476Z,16.50
2022-08-22T07:39:39.440Z,16.80
2022-08-22T07:42:11.891Z,17.10
2022-08-22T07:44:49.891Z,17.70
2022-08-22T07:47:26.498Z,18.20
2022-08-22T07:49:56.162Z,18.60
2022-08-22T07:52:24.319Z,18.70
2022-08-22T07:54:55.278Z,18.90
2022-08-22T07:57:25.919Z,19.30
2022-08-22T07:59:56.456Z,19.80
2022-08-22T08:02:24.678Z,20.30
2022-08-22T08:04:54.348Z,20.50
2022-08-22T08:07:23.404Z,20.80
2022-08-22T08:09:53.873Z,21.30
2022-08-22T08:12:26.727Z,21.60
2022-08-22T08:14:55.790Z,21.60
2022-08-22T08:17:27.774Z,21.80
2022-08-22T08:19:58.027Z,21.80
2022-08-22T08:22:26.717Z,22.10
2022-08-22T08:24:57.354Z,22.60
2022-08-22T08:27:44.720Z,22.80
2022-08-22T08:30:21.240Z,22.60
2022-08-22T08:32:50.432Z,22.70
2022-08-22T08:35:25.444Z,23.00
2022-08-22T08:37:55.426Z,23.20
2022-08-22T08:40:45.954Z,23.10
2022-08-22T08:43:31.351Z,23.20
2022-08-22T08:46:29.706Z,23.40
2022-08-22T08:49:13.168Z,23.70
2022-08-22T08:51:57.705Z,23.60
2022-08-22T08:54:43.387Z,24.10
2022-08-22T08:57:19.075Z,24.40
2022-08-22T08:59:51.129Z,24.60
2022-08-22T09:02:33.104Z,24.60
2022-08-22T09:05:31.509Z,24.80
2022-08-22T09:08:06.195Z,24.90
2022-08-22T09:10:59.891Z,25.10
2022-08-22T09:13:42.506Z,25.00
2022-08-22T09:16:20.264Z,25.00
2022-08-22T09:19:21.650Z,25.30
2022-08-22T09:21:58.679Z,25.30
2022-08-22T09:25:11.766Z,25.40
2022-08-22T09:27:46.914Z,25.10
2022-08-22T09:30:17.271Z,25.40
2022-08-22T09:32:48.448Z,25.60
2022-08-22T09:35:22.388Z,25.80
2022-08-22T09:38:00.460Z,25.90
2022-08-22T09:40:29.644Z,26.00
2022-08-22T09:43:02.506Z,26.00
2022-08-22T09:45:43.105Z,26.20
2022-08-22T09:48:19.597Z,26.40
2022-08-22T09:50:52.733Z,25.50
2022-08-22T09:53:38.296Z,25.80
2022-08-22T09:56:15.126Z,25.90
2022-08-22T09:58:44.888Z,26.20
2022-08-22T10:01:21.068Z,26.30
2022-08-22T10:04:36.973Z,26.30
2022-08-22T10:07:12.284Z,26.20
2022-08-22T10:09:43.498Z,26.30
2022-08-22T10:12:16.917Z,26.10
2022-08-22T10:15:01.653Z,26.20
2022-08-22T10:17:32.413Z,26.40
2022-08-22T10:20:05.778Z,26.80
2022-08-22T10:22:44.544Z,26.40
2022-08-22T10:25:28.476Z,26.30
2022-08-22T10:28:03.683Z,26.20
2022-08-22T10:30:34.242Z,26.00
2022-08-22T10:33:05.355Z,25.40
2022-08-22T10:35:35.129Z,25.10
2022-08-22T10:38:06.879Z,25.00
2022-08-22T10:40:40.487Z,24.90
2022-08-22T10:43:11.977Z,25.20
2022-08-22T10:45:41.688Z,25.40
2022-08-22T10:48:36.141Z,25.90
2022-08-22T10:51:09.002Z,26.20
2022-08-22T10:53:56.152Z,26.40
2022-08-22T10:56:27.466Z,26.80
2022-08-22T10:58:56.656Z,27.00
2022-08-22T11:01:41.634Z,27.20
2022-08-22T11:04:16.198Z,27.60
2022-08-22T11:06:46.040Z,27.50
2022-08-22T11:09:22.748Z,26.60
2022-08-22T11:11:56.108Z,26.40
2022-08-22T11:14:58.625Z,26.70
2022-08-22T11:17:54.128Z,26.90
2022-08-22T11:20:25.477Z,26.80
2022-08-22T11:23:05.389Z,26.70
2022-08-22T11:25:44.453Z,26.20
2022-08-22T11:28:45.219Z,26.00
2022-08-22T11:31:19.747Z,26.80
2022-08-22T11:33:52.326Z,26.70
2022-08-22T11:36:27.701Z,26.30
2022-08-22T11:39:17.989Z,25.90
2022-08-22T11:41:52.160Z,26.10
2022-08-22T11:44:21.885Z,26.40
2022-08-22T11:46:54.326Z,26.80
2022-08-22T11:49:34.526Z,26.80
2022-08-22T11:52:19.578Z,26.90
2022-08-22T11:55:12.066Z,26.70
2022-08-22T11:57:44.318Z,27.20
2022-08-22T12:00:28.843Z,26.90
2022-08-22T12:03:12.916Z,26.40
2022-08-22T12:05:44.401Z,25.90
2022-08-22T12:08:15.880Z,25.50
2022-08-22T12:10:51.928Z,25.60
2022-08-22T12:13:34.741Z,26.10
2022-08-22T12:16:08.085Z,26.50
2022-08-22T12:18:47.446Z,26.60
2022-08-22T12:21:49.600Z,26.80
2022-08-22T12:24:35.635Z,27.00
2022-08-22T12:27:18.370Z,27.00
2022-08-22T12:30:05.985Z,26.80
2022-08-22T12:33:23.525Z,26.60
2022-08-22T12:35:57.637Z,26.90
2022-08-22T12:38:36.057Z,26.00
2022-08-22T12:41:28.010Z,25.90
2022-08-22T12:44:06.712Z,25.80
2022-08-22T12:46:46.621Z,25.70
2022-08-22T12:49:27.036Z,25.60
2022-08-22T12:52:06.989Z,25.10
2022-08-22T12:54:59.703Z,25.20
2022-08-22T12:57:43.785Z,25.50
2022-08-22T13:00:22.812Z,25.50
2022-08-22T13:02:52.932Z,25.90
2022-08-22T13:05:22.104Z,26.20
2022-08-22T13:07:54.531Z,26.30
2022-08-22T13:10:39.044Z,26.60
2022-08-22T13:13:12.334Z,26.80
2022-08-22T13:15:42.352Z,26.80
2022-08-22T13:18:30.555Z,26.50
2022-08-22T13:20:59.821Z,26.10
2022-08-22T13:23:29.777Z,25.90
2022-08-22T13:26:07.648Z,25.90
2022-08-22T13:28:41.919Z,26.10
2022-08-22T13:31:09.808Z,26.10
2022-08-22T13:33:38.948Z,25.80
2022-08-22T13:36:08.238Z,25.40
2022-08-22T13:38:46.243Z,25.80
2022-08-22T13:41:14.508Z,26.00
2022-08-22T13:44:15.653Z,26.00
2022-08-22T13:47:13.300Z,25.40
2022-08-22T13:49:34.420Z,25.10
2022-08-22T13:52:20.658Z,25.40
2022-08-22T13:54:59.654Z,25.60
2022-08-22T13:57:28.929Z,25.50
2022-08-22T14:00:10.154Z,25.60
2022-08-22T14:02:43.439Z,25.80
2022-08-22T14:05:13.217Z,25.80
2022-08-22T14:07:44.448Z,26.10
2022-08-22T14:10:15.236Z,26.20
2022-08-22T14:12:50.181Z,25.90
2022-08-22T14:15:32.278Z,25.90
2022-08-22T14:18:13.328Z,25.70
2022-08-22T14:20:41.865Z,25.50
2022-08-22T14:23:11.573Z,25.50
2022-08-22T14:25:40.044Z,25.20
2022-08-22T14:28:09.364Z,25.20
2022-08-22T14:30:40.293Z,25.40
2022-08-22T14:33:14.555Z,25.60
2022-08-22T14:35:43.191Z,25.60
2022-08-22T14:38:18.107Z,25.80
2022-08-22T14:40:46.143Z,25.90
2022-08-22T14:43:22.222Z,25.60
2022-08-22T14:45:57.299Z,25.70
2022-08-22T14:48:33.824Z,25.70
2022-08-22T14:51:05.747Z,25.50
2022-08-22T14:53:37.480Z,25.60
2022-08-22T14:56:08.902Z,25.70
2022-08-22T14:58:46.661Z,25.70
2022-08-22T15:01:16.842Z,25.60
2022-08-22T15:03:44.795Z,25.80
2022-08-22T15:06:16.913Z,25.70
2022-08-22T15:08:50.679Z,25.60
2022-08-22T15:11:22.695Z,25.50
2022-08-22T15:13:53.219Z,25.40
2022-08-22T15:16:24.082Z,25.70
2022-08-22T15:18:52.282Z,25.60
2022-08-22T15:21:24.359Z,25.70
2022-08-22T15:23:54.245Z,25.80
2022-08-22T15:26:28.227Z,25.60
2022-08-22T15:29:04.525Z,25.30
2022-08-22T15:31:33.711Z,25.30
2022-08-22T15:34:10.652Z,25.30
2022-08-22T15:36:58.793Z,25.40
2022-08-22T15:39:30.238Z,25.40
2022-08-22T15:41:58.735Z,25.50
2022-08-22T15:44:32.933Z,25.20
2022-08-22T15:47:10.810Z,25.20
2022-08-22T15:49:53.832Z,25.00
2022-08-22T15:52:25.989Z,24.90
2022-08-22T15:55:20.632Z,25.00
2022-08-22T15:58:06.733Z,24.80
2022-08-22T16:00:43.452Z,24.80
2022-08-22T16:03:16.105Z,24.70
2022-08-22T16:05:55.249Z,24.50
2022-08-22T16:08:26.367Z,24.50
2022-08-22T16:10:56.758Z,24.50
2022-08-22T16:13:43.974Z,24.50
2022-08-22T16:16:14.643Z,24.20
2022-08-22T16:19:09.522Z,24.20
2022-08-22T16:22:12.820Z,24.10
2022-08-22T16:25:03.213Z,24.10
2022-08-22T16:27:31.037Z,23.90
2022-08-22T16:30:10.492Z,24.00
2022-08-22T16:32:38.336Z,24.00
2022-08-22T16:35:07.667Z,23.90
2022-08-22T16:37:50.245Z,23.90
2022-08-22T16:40:25.753Z,23.80
2022-08-22T16:43:14.553Z,23.70
2022-08-22T16:45:44.643Z,23.50
2022-08-22T16:48:17.808Z,23.50
2022-08-22T16:50:52.271Z,23.50
2022-08-22T16:53:54.256Z,23.40
2022-08-22T16:56:25.798Z,23.20
2022-08-22T16:59:22.882Z,23.00
2022-08-22T17:02:19.581Z,23.00
2022-08-22T17:04:55.015Z,22.80
2022-08-22T17:07:29.758Z,22.70
2022-08-22T17:10:14.576Z,22.80
2022-08-22T17:12:53.203Z,22.70
2022-08-22T17:15:28.196Z,22.80
2022-08-22T17:18:11.672Z,22.70
2022-08-22T17:20:45.199Z,22.60
2022-08-22T17:23:19.303Z,22.50
2022-08-22T17:25:53.208Z,22.50
2022-08-22T17:28:24.933Z,22.30
2022-08-22T17:30:57.492Z,22.30
2022-08-22T17:33:51.960Z,22.30
2022-08-22T17:36:27.049Z,22.20
2022-08-22T17:39:00.734Z,22.10
2022-08-22T17:41:33.089Z,22.10
2022-08-22T17:44:06.352Z,22.00
2022-08-22T17:46:37.531Z,21.90
2022-08-22T17:49:15.289Z,21.80
2022-08-22T17:51:47.264Z,21.70
2022-08-22T17:54:20.017Z,21.60
2022-08-22T17:56:52.413Z,21.50
2022-08-22T17:59:36.982Z,21.30
2022-08-22T18:02:11.024Z,21.30
2022-08-22T18:04:46.854Z,21.30
2022-08-22T18:07:33.377Z,21.30
2022-08-22T18:10:05.946Z,21.20
2022-08-22T18:12:38.984Z,21.10
2022-08-22T18:15:08.651Z,21.10
2022-08-22T18:17:38.527Z,21.00
2022-08-22T18:20:09.341Z,21.00
2022-08-22T18:22:41.044Z,20.90
2022-08-22T18:25:14.366Z,20.80
2022-08-22T18:27:48.074Z,20.70
2022-08-22T18:30:19.741Z,20.70
2022-08-22T18:32:51.945Z,20.50
2022-08-22T18:35:22.187Z,20.50
2022-08-22T18:37:54.810Z,20.50
2022-08-22T18:40:29.272Z,20.30
2022-08-22T18:43:01.795Z,20.30
2022-08-22T18:45:58.185Z,20.20
2022-08-22T18:48:29.641Z,20.10
2022-08-22T18:51:21.201Z,20.10
2022-08-22T18:53:52.872Z,20.10
2022-08-22T18:56:43.947Z,20.00
2022-08-22T18:59:19.847Z,19.80
2022-08-22T19:01:56.190Z,19.70
2022-08-22T19:04:39.821Z,19.80
2022-08-22T19:08:01.535Z,19.70
2022-08-22T19:10:40.050Z,19.60
2022-08-22T19:13:26.371Z,19.60
2022-08-22T19:16:05.893Z,19.50
2022-08-22T19:18:40.287Z,19.30
2022-08-22T19:21:42.141Z,19.30
2022-08-22T19:24:12.676Z,19.20
2022-08-22T19:26:42.631Z,19.30
2022-08-22T19:29:47.985Z,19.20
2022-08-22T19:32:59.047Z,19.10
2022-08-22T19:35:29.623Z,19.10
2022-08-22T19:37:57.973Z,18.80
2022-08-22T19:40:48.558Z,18.80
2022-08-22T19:43:29.435Z,18.80
2022-08-22T19:45:57.820Z,18.70
2022-08-22T19:48:28.180Z,18.80
2022-08-22T19:51:10.404Z,18.80
2022-08-22T19:53:43.007Z,18.80
2022-08-22T19:56:19.058Z,18.60
2022-08-22T19:58:56.219Z,18.60
2022-08-22T20:01:39.673Z,18.70
2022-08-22T20:04:10.465Z,18.60
2022-08-22T20:06:44.585Z,18.60
2022-08-22T20:09:33.873Z,18.60
2022-08-22T20:12:16.069Z,18.50
2022-08-22T20:14:45.040Z,18.20
2022-08-22T20:17:14.221Z,18.10
2022-08-22T20:22:41.617Z,18.10
2022-08-22T20:25:17.215Z,18.10
2022-08-22T20:28:02.712Z,18.10
2022-08-22T20:30:39.472Z,17.90
2022-08-22T20:33:08.599Z,17.80
2022-08-22T20:35:43.676Z,17.80
2022-08-22T20:38:13.286Z,17.70
2022-08-22T20:40:56.774Z,17.60
2022-08-22T20:43:28.450Z,17.60
2022-08-22T20:46:02.677Z,17.50
2022-08-22T20:48:34.187Z,17.50
2022-08-22T20:51:05.641Z,17.40
2022-08-22T20:53:33.484Z,17.30
2022-08-22T20:56:01.627Z,17.20
2022-08-22T20:58:35.509Z,17.20
2022-08-22T21:01:06.011Z,17.10
2022-08-22T21:03:37.837Z,17.10
2022-08-22T21:06:14.344Z,16.90
2022-08-22T21:08:42.642Z,16.90
2022-08-22T21:11:28.125Z,16.90
2022-08-22T21:13:56.349Z,16.90
2022-08-22T21:16:31.692Z,16.80
2022-08-22T21:19:01.606Z,16.60
2022-08-22T21:21:31.814Z,16.60
2022-08-22T21:24:01.609Z,16.60
2022-08-22T21:26:30.402Z,16.60
2022-08-22T21:28:59.885Z,16.50
2022-08-22T21:31:29.309Z,16.50
2022-08-22T21:33:57.159Z,16.40
2022-08-22T21:36:28.457Z,16.30
2022-08-22T21:38:58.969Z,16.20
2022-08-22T21:41:28.290Z,16.30
2022-08-22T21:43:56.140Z,16.20
2022-08-22T21:46:28.633Z,16.10
2022-08-22T21:48:59.260Z,16.10
2022-08-22T21:51:32.833Z,16.00
2022-08-22T21:54:43.229Z,16.00
2022-08-22T21:57:20.856Z,15.90
2022-08-22T21:59:52.110Z,15.80
2022-08-22T22:02:29.723Z,15.80
2022-08-22T22:04:59.253Z,15.70
2022-08-22T22:07:27.457Z,15.60
2022-08-22T22:09:55.402Z,15.60
2022-08-22T22:12:25.446Z,15.50
2022-08-22T22:14:53.408Z,15.50
2022-08-22T22:17:21.223Z,15.50
2022-08-22T22:19:49.483Z,15.50
2022-08-22T22:22:17.600Z,15.40
2022-08-22T22:24:45.445Z,15.30
2022-08-22T22:27:16.970Z,15.20
2022-08-22T22:29:46.351Z,15.20
2022-08-22T22:32:14.198Z,15.20
2022-08-22T22:34:43.141Z,15.30
2022-08-22T22:37:11.851Z,15.50
2022-08-22T22:39:39.756Z,15.30
2022-08-22T22:42:09.430Z,15.20
2022-08-22T22:44:37.228Z,15.10
2022-08-22T22:47:06.588Z,15.10
2022-08-22T22:49:34.389Z,14.90
2022-08-22T22:52:02.284Z,14.90
2022-08-22T22:54:31.107Z,14.90
2022-08-22T22:57:01.999Z,15.00
2022-08-22T22:59:29.803Z,14.80
2022-08-22T23:02:01.772Z,14.70
2022-08-22T23:04:31.437Z,14.90
2022-08-22T23:06:59.333Z,15.00
2022-08-22T23:09:28.212Z,14.90
2022-08-22T23:12:07.047Z,14.80
2022-08-22T23:14:35.085Z,14.70
2022-08-22T23:17:02.986Z,14.60
2022-08-22T23:19:32.247Z,14.40
2022-08-22T23:22:01.035Z,14.30
2022-08-22T23:24:29.501Z,14.40
2022-08-22T23:26:57.592Z,14.40
2022-08-22T23:29:25.513Z,14.40
2022-08-22T23:31:54.295Z,14.70
2022-08-22T23:34:23.610Z,14.30
2022-08-22T23:36:54.610Z,14.20
2022-08-22T23:39:23.220Z,13.90
2022-08-22T23:41:51.206Z,14.20
2022-08-22T23:44:20.304Z,14.00
2022-08-22T23:46:48.431Z,14.00
2022-08-22T23:49:16.308Z,13.80
2022-08-22T23:51:44.441Z,13.70
2022-08-22T23:54:13.612Z,13.70
2022-08-22T23:56:42.524Z,13.70
2022-08-22T23:59:13.000Z,13.70
